Date,TemperatureHighF,TemperatureAvgF,TemperatureLowF,DewpointHighF,DewpointAvgF,DewpointLowF,HumidityHigh,HumidityAvg,HumidityLow,PressureMaxIn,PressureMinIn,WindSpeedMaxMPH,WindSpeedAvgMPH,GustSpeedMaxMPH,PrecipitationSumIn
2013-8-1,80.4,72.7,65.1,76.9,71.7,64.9,99,96,80,29.87,29.79,8,2,12,0.06
2013-8-2,86.4,78.0,68.4,75.3,71.4,68.1,99,81,64,29.75,29.70,8,3,14,0.19
2013-8-3,82.2,73.4,68.0,75.5,71.5,67.7,99,94,77,29.75,29.68,9,2,10,0.00
2013-8-4,79.5,72.5,60.4,68.8,66.3,60.2,99,82,65,29.74,29.69,13,4,13,0.00
2013-8-5,77.2,69.9,61.2,61.3,58.0,53.2,99,67,50,29.92,29.84,13,4,14,0.00
2013-8-6,86.2,74.0,55.9,68.6,64.1,55.7,99,73,54,30.00,29.96,11,3,11,0.00
2013-8-7,83.8,73.3,60.3,71.2,68.7,60.0,99,87,61,30.06,29.96,10,4,11,0.00
2013-8-8,83.3,73.7,69.4,82.4,73.4,69.2,99,99,95,29.97,29.88,9,3,14,0.08
2013-8-9,78.1,74.5,72.9,77.8,74.2,72.6,99,99,99,29.89,29.65,10,3,14,1.20
2013-8-10,78.4,73.2,68.5,73.7,71.4,68.3,99,94,82,29.84,29.81,6,3,11,0.00
2013-8-11,84.7,72.4,59.5,69.4,65.2,59.3,99,80,57,29.99,29.90,8,2,12,0.00
2013-8-12,82.2,74.3,64.6,73.0,69.8,64.3,99,86,67,29.91,29.80,7,2,8,0.00
2013-8-13,77.0,72.6,68.5,76.0,72.3,68.3,99,99,94,29.72,29.56,8,2,8,0.07
2013-8-14,73.0,67.5,59.4,62.4,60.2,57.9,99,78,66,29.85,29.67,15,6,16,0.00
2013-8-15,67.5,62.7,56.7,63.8,61.2,56.4,99,95,88,30.01,29.95,4,1,4,0.00
2013-8-16,85.3,70.3,55.4,68.7,63.8,55.1,99,82,52,30.04,30.02,9,2,11,0.00
2013-8-17,88.5,72.6,59.2,70.2,65.6,58.9,99,81,44,30.16,30.10,6,1,6,0.00
2013-8-18,72.0,66.9,61.5,71.7,66.6,61.3,99,99,99,30.15,30.00,3,1,4,0.00
2013-8-19,79.3,75.0,63.9,73.1,70.8,63.6,99,87,73,29.96,29.87,6,2,8,0.00
2013-8-20,88.0,77.9,64.6,72.9,70.7,64.3,99,80,59,30.00,29.93,9,2,10,0.00
2013-8-21,91.2,79.9,64.4,78.3,73.0,64.1,99,81,58,30.05,29.91,6,2,7,0.00
2013-8-22,79.3,74.3,70.7,78.6,74.0,70.4,99,99,96,29.93,29.83,8,2,8,0.31
2013-8-23,81.5,74.1,66.0,71.9,67.5,62.7,99,81,59,30.00,29.79,8,2,9,0.00
2013-8-24,80.6,70.7,58.6,64.1,61.8,58.4,99,75,56,30.22,30.14,9,2,9,0.00
2013-8-25,93.0,69.2,54.3,68.0,61.4,54.1,99,80,41,30.27,30.08,8,2,8,0.00
2013-8-26,71.1,69.2,66.7,70.8,68.4,65.6,99,97,91,30.01,29.78,7,2,8,0.32
2013-8-27,83.1,75.3,68.4,80.6,74.6,68.1,99,98,88,29.76,29.70,4,2,7,0.31
2013-8-28,89.4,73.3,66.4,80.9,71.8,66.1,99,96,69,29.78,29.69,9,2,13,0.01
2013-8-29,70.7,69.5,68.9,70.4,69.2,68.6,99,99,99,29.90,29.84,5,2,7,0.00
2013-8-30,67.5,66.2,65.5,67.2,65.9,65.2,99,99,99,29.88,29.86,4,2,7,0.00
2013-8-31,81.9,77.0,72.5,81.6,76.8,72.2,99,99,99,29.72,29.66,10,3,10,0.00